Terminal Aerodrome Forecast
Issued by NWS

Home | Current Version | Previous Version | Text Only | Print | Product List | Glossary Off
Versions: 1 2 3 4 5 6 7 8 9 10 11 12 13 14

136
FTUS43 KMPX 202322
TAFAXN
TAF
KAXN 202322Z 2100/2124 25012KT P6SM SKC
     FM210200 29015G23KT P6SM SCT250
     FM210600 31025G32KT P6SM OVC050
     FM211500 32024G33KT P6SM SCT150
     FM212200 32017G23KT P6SM SKC=

USA.gov is the U.S. government's official web portal to all federal, state and local government web resources and services.